Time;durP1;ratioP1;P1;durP2;ratioP2;P2;SDS_P1;SDS_P2;PMS_P1;PMS_P2;Temp;Humidity;BMP_temperature;BMP_pressure;BME280_temperature;BME280_humidity;BME280_pressure;Samples;Min_cycle;Max_cycle;Signal;HPM_P1;HPM_P2
2023/07/20 01:04:05;;;;;;;6.20;2.00;;;;;;;11.36;100.00;99198.05;109372;1253;58035;-67
2023/07/20 01:07:03;;;;;;;8.60;2.30;;;;;;;11.37;100.00;99206.48;109346;1253;61438;-68
2023/07/20 01:10:18;;;;;;;7.30;2.10;;;;;;;11.38;100.00;99203.70;109425;1254;72957;-68
2023/07/20 01:13:11;;;;;;;7.70;2.20;;;;;;;11.40;100.00;99207.48;109319;1254;66496;-69
2023/07/20 01:16:01;;;;;;;7.80;2.50;;;;;;;11.40;100.00;99210.14;109342;1253;73219;-67
2023/07/20 01:18:48;;;;;;;7.00;2.20;;;;;;;11.41;100.00;99214.05;109301;1254;57940;-68
2023/07/20 01:21:47;;;;;;;7.80;2.30;;;;;;;11.44;100.00;99212.92;109318;1253;59015;-69
2023/07/20 01:24:59;;;;;;;8.20;3.00;;;;;;;11.47;100.00;99216.95;109588;1253;73145;-69
2023/07/20 01:28:27;;;;;;;6.60;2.30;;;;;;;11.48;100.00;99213.41;109417;1253;68791;-67
2023/07/20 01:31:27;;;;;;;7.10;2.40;;;;;;;11.51;100.00;99215.09;109364;1253;71302;-69
2023/07/20 01:34:17;;;;;;;7.40;2.40;;;;;;;11.53;100.00;99206.73;109492;1254;60842;-67
2023/07/20 01:37:06;;;;;;;7.50;2.10;;;;;;;11.55;99.96;99208.30;109186;1254;59451;-66
2023/07/20 01:39:57;;;;;;;8.80;3.10;;;;;;;11.57;99.87;99208.44;109383;1254;71766;-67
2023/07/20 01:42:46;;;;;;;8.00;2.20;;;;;;;11.59;99.97;99205.06;109346;1254;69057;-68
2023/07/20 01:45:33;;;;;;;7.80;2.40;;;;;;;11.63;99.93;99209.39;109176;1259;72435;-68
2023/07/20 01:48:22;;;;;;;6.50;2.30;;;;;;;11.66;99.88;99201.58;109338;1253;59867;-67
2023/07/20 01:51:09;;;;;;;6.70;1.90;;;;;;;11.70;99.71;99199.83;109367;1254;58996;-67
2023/07/20 01:53:55;;;;;;;7.40;2.30;;;;;;;11.73;99.64;99195.96;109364;1254;72632;-68
2023/07/20 01:56:42;;;;;;;9.00;3.40;;;;;;;11.76;99.35;99195.64;109561;1254;67600;-68
2023/07/20 01:59:29;;;;;;;8.00;2.50;;;;;;;11.79;99.13;99195.61;109361;1256;73589;-67
2023/07/20 02:02:16;;;;;;;6.80;2.00;;;;;;;11.81;99.00;99191.52;109526;1254;60635;-68
2023/07/20 02:05:02;;;;;;;5.80;2.00;;;;;;;11.79;98.70;99192.72;109488;1253;60073;-69
2023/07/20 02:07:49;;;;;;;7.30;2.20;;;;;;;11.78;98.41;99192.49;109426;1253;73954;-67
2023/07/20 02:10:38;;;;;;;9.80;2.40;;;;;;;11.75;98.36;99195.21;109476;1253;67970;-69
2023/07/20 02:13:24;;;;;;;6.70;2.10;;;;;;;11.75;98.49;99194.70;109505;1256;73471;-66
2023/07/20 02:16:11;;;;;;;6.20;2.20;;;;;;;11.73;98.50;99195.23;109456;1257;60404;-68
2023/07/20 02:18:58;;;;;;;7.40;2.20;;;;;;;11.71;98.38;99192.75;109332;1254;60349;-69
2023/07/20 02:21:44;;;;;;;7.10;2.10;;;;;;;11.71;98.49;99193.15;109469;1253;73080;-66
2023/07/20 02:24:33;;;;;;;6.20;2.20;;;;;;;11.70;98.61;99199.84;109435;1254;67759;-69
2023/07/20 02:27:19;;;;;;;7.70;2.20;;;;;;;11.69;98.64;99201.52;109344;1254;73392;-68
2023/07/20 02:30:07;;;;;;;6.90;2.40;;;;;;;11.69;98.52;99199.05;109487;1253;57979;-68
2023/07/20 02:32:53;;;;;;;6.40;2.80;;;;;;;11.70;98.57;99202.89;108639;1253;1002263;-69
2023/07/20 02:35:40;;;;;;;6.20;2.10;;;;;;;11.69;98.61;99198.61;109397;1253;72874;-68
2023/07/20 02:38:27;;;;;;;6.00;2.00;;;;;;;11.70;98.65;99195.57;109565;1253;68765;-67
2023/07/20 02:41:14;;;;;;;7.00;2.20;;;;;;;11.70;98.72;99198.70;109374;1254;72192;-66
2023/07/20 02:44:01;;;;;;;6.60;2.70;;;;;;;11.72;98.72;99196.46;109214;1254;60461;-68
2023/07/20 02:46:49;;;;;;;8.50;2.60;;;;;;;11.72;98.65;99193.61;109539;1253;59894;-69
2023/07/20 02:49:37;;;;;;;7.10;2.40;;;;;;;11.71;98.62;99192.19;109554;1255;73765;-67
2023/07/20 02:52:24;;;;;;;7.40;2.30;;;;;;;11.75;98.86;99188.86;109493;1254;66551;-67
2023/07/20 02:55:11;;;;;;;7.60;2.40;;;;;;;11.77;98.61;99190.42;109278;1253;71163;-68
2023/07/20 02:57:57;;;;;;;7.20;2.20;;;;;;;11.77;98.25;99183.15;109474;1254;59594;-68
2023/07/20 03:00:44;;;;;;;7.80;2.40;;;;;;;11.74;98.16;99185.36;109295;1254;60099;-68
2023/07/20 03:03:31;;;;;;;6.90;2.20;;;;;;;11.73;98.37;99183.15;109333;1253;73323;-70
2023/07/20 03:06:37;;;;;;;8.20;2.10;;;;;;;11.75;98.39;99183.54;109455;1255;70339;-68
2023/07/20 03:09:24;;;;;;;10.60;2.40;;;;;;;11.75;98.29;99186.17;109460;1254;72858;-70
2023/07/20 03:12:10;;;;;;;6.90;2.40;;;;;;;11.77;98.35;99189.59;109300;1253;57737;-69
2023/07/20 03:14:56;;;;;;;6.30;2.20;;;;;;;11.75;98.39;99193.99;109332;1254;60345;-69
2023/07/20 03:17:43;;;;;;;6.50;2.40;;;;;;;11.74;98.40;99191.41;109297;1254;72792;-70
2023/07/20 03:20:31;;;;;;;6.90;2.40;;;;;;;11.75;98.53;99192.04;108632;1254;1002424;-69
2023/07/20 03:23:18;;;;;;;7.00;2.30;;;;;;;11.76;98.83;99189.79;109412;1254;72632;-69
2023/07/20 03:26:05;;;;;;;8.90;2.10;;;;;;;11.76;98.50;99192.81;109415;1253;59364;-69
2023/07/20 03:28:51;;;;;;;8.60;2.70;;;;;;;11.79;98.77;99190.38;109451;1254;59250;-68
2023/07/20 03:31:38;;;;;;;8.00;2.40;;;;;;;11.83;98.74;99191.09;109314;1254;73969;-69
2023/07/20 03:34:24;;;;;;;6.60;2.40;;;;;;;11.88;98.81;99196.65;109358;1252;67806;-70
2023/07/20 03:37:13;;;;;;;6.60;2.50;;;;;;;11.93;98.55;99199.58;109158;1254;72776;-69
2023/07/20 03:40:00;;;;;;;7.50;2.20;;;;;;;11.99;98.46;99191.77;109196;1254;59598;-68
2023/07/20 03:42:46;;;;;;;6.70;2.30;;;;;;;12.03;98.26;99190.32;109223;1253;59218;-70
2023/07/20 03:45:33;;;;;;;8.40;2.50;;;;;;;12.08;98.36;99187.44;109377;1254;74175;-68
2023/07/20 03:48:23;;;;;;;6.90;2.30;;;;;;;12.16;98.20;99184.52;109503;1254;68882;-69
2023/07/20 03:51:09;;;;;;;7.40;2.40;;;;;;;12.24;98.01;99185.38;109361;1252;73752;-70
2023/07/20 03:53:56;;;;;;;9.10;2.30;;;;;;;12.36;97.91;99189.58;109553;1252;60496;-70
2023/07/20 03:56:42;;;;;;;6.00;2.20;;;;;;;12.51;97.82;99190.48;109169;1254;60260;-68
2023/07/20 03:59:28;;;;;;;7.90;2.30;;;;;;;12.72;97.62;99192.53;109546;1252;72183;-68
2023/07/20 04:02:15;;;;;;;7.90;2.30;;;;;;;12.92;97.05;99192.86;109536;1254;68660;-68
2023/07/20 04:05:02;;;;;;;6.40;2.00;;;;;;;13.09;96.43;99195.02;109267;1254;73673;-71
2023/07/20 04:07:51;;;;;;;5.90;2.10;;;;;;;13.23;96.18;99190.73;109216;1254;59846;-70
2023/07/20 04:10:38;;;;;;;6.70;2.00;;;;;;;13.38;95.62;99189.16;109177;1253;58738;-69
2023/07/20 04:13:25;;;;;;;5.70;2.10;;;;;;;13.49;95.36;99190.63;109538;1253;72811;-69
2023/07/20 04:16:11;;;;;;;6.90;2.10;;;;;;;13.63;94.83;99193.11;109183;1254;67928;-70
2023/07/20 04:18:58;;;;;;;7.70;2.40;;;;;;;13.77;94.07;99192.02;109235;1254;72502;-68
2023/07/20 04:21:44;;;;;;;6.30;1.80;;;;;;;13.92;93.36;99188.59;109244;1253;58749;-69
2023/07/20 04:24:31;;;;;;;5.80;2.50;;;;;;;14.11;92.73;99191.80;109547;1254;61207;-70
2023/07/20 04:27:21;;;;;;;6.60;2.00;;;;;;;14.24;91.62;99192.02;109420;1253;73173;-71
2023/07/20 04:30:10;;;;;;;6.20;2.40;;;;;;;14.29;90.19;99192.77;109305;1253;67612;-71
2023/07/20 04:32:57;;;;;;;7.00;2.10;;;;;;;14.25;90.27;99195.88;109217;1253;72465;-70
2023/07/20 04:35:54;;;;;;;7.00;2.00;;;;;;;14.25;90.09;99197.63;109378;1253;58064;-70
2023/07/20 04:38:50;;;;;;;7.50;1.80;;;;;;;14.27;90.19;99195.82;109555;1253;60145;-69
2023/07/20 04:41:39;;;;;;;6.30;2.10;;;;;;;14.31;89.55;99198.42;109470;1253;73051;-71
2023/07/20 04:44:25;;;;;;;8.40;2.10;;;;;;;14.34;89.47;99205.10;109549;1253;68912;-69
2023/07/20 04:47:14;;;;;;;7.60;2.10;;;;;;;14.34;89.35;99204.56;109145;1254;72756;-72
2023/07/20 04:50:03;;;;;;;5.80;1.90;;;;;;;14.34;89.74;99204.27;109285;1253;59634;-66
2023/07/20 04:52:53;;;;;;;8.70;2.10;;;;;;;14.30;89.70;99204.81;109469;1254;61316;-67
2023/07/20 04:55:50;;;;;;;8.40;2.20;;;;;;;14.25;89.70;99208.73;109392;1254;70773;-68
2023/07/20 04:58:39;;;;;;;7.30;2.60;;;;;;;14.21;90.28;99211.23;109364;1253;66270;-71
2023/07/20 05:01:26;;;;;;;7.60;2.50;;;;;;;14.17;90.60;99201.58;109338;1253;72613;-71
2023/07/20 05:04:21;;;;;;;6.30;2.30;;;;;;;14.13;90.87;99205.01;109416;1254;59291;-71
2023/07/20 05:07:09;;;;;;;8.00;2.60;;;;;;;14.13;91.26;99205.84;109332;1253;58914;-71
2023/07/20 05:09:57;;;;;;;7.20;2.50;;;;;;;14.13;91.65;99206.91;109401;1253;73080;-74
2023/07/20 05:12:44;;;;;;;6.70;2.30;;;;;;;14.15;92.18;99201.98;109281;1253;67983;-70
2023/07/20 05:15:36;;;;;;;7.30;2.40;;;;;;;14.18;92.25;99205.39;109283;1254;73523;-72
2023/07/20 05:18:24;;;;;;;7.90;2.10;;;;;;;14.20;92.66;99203.39;109154;1253;59687;-71
2023/07/20 05:21:12;;;;;;;7.10;2.00;;;;;;;14.21;93.18;99204.34;109433;1253;61298;-70
2023/07/20 05:23:58;;;;;;;6.90;2.00;;;;;;;14.29;93.65;99201.81;109230;1253;73875;-72
2023/07/20 05:26:48;;;;;;;9.30;2.30;;;;;;;14.44;93.38;99193.79;109227;1253;68833;-75
2023/07/20 05:29:37;;;;;;;7.10;2.10;;;;;;;14.64;92.88;99199.25;109414;1253;72526;-73
2023/07/20 05:32:24;;;;;;;7.00;2.30;;;;;;;14.72;92.01;99206.74;109286;1254;58237;-72
2023/07/20 05:35:15;;;;;;;7.50;2.10;;;;;;;14.72;91.63;99207.67;109401;1253;58941;-74
2023/07/20 05:38:02;;;;;;;7.10;1.90;;;;;;;14.67;91.39;99203.55;109263;1253;73022;-73
2023/07/20 05:40:50;;;;;;;6.10;1.80;;;;;;;14.65;90.88;99204.09;109268;1253;67676;-71
2023/07/20 05:43:36;;;;;;;7.10;1.90;;;;;;;14.72;90.26;99205.00;109456;1253;71636;-71
2023/07/20 05:46:24;;;;;;;6.90;2.00;;;;;;;14.92;90.49;99205.33;109369;1253;59345;-71
2023/07/20 05:49:12;;;;;;;6.10;1.80;;;;;;;15.14;89.01;99212.57;109538;1253;58761;-70
2023/07/20 05:52:00;;;;;;;6.90;2.00;;;;;;;15.44;88.23;99212.27;109523;1253;71510;-71
2023/07/20 05:54:48;;;;;;;5.50;1.50;;;;;;;15.74;87.03;99214.34;109550;1253;67972;-68
2023/07/20 05:57:35;;;;;;;5.90;1.60;;;;;;;16.02;85.84;99205.82;109301;1252;71100;-71
2023/07/20 06:00:26;;;;;;;6.10;1.60;;;;;;;16.14;84.66;99203.35;109449;1253;57270;-74
2023/07/20 06:03:14;;;;;;;5.90;1.60;;;;;;;16.15;83.45;99202.14;109508;1253;59994;-70
2023/07/20 06:06:09;;;;;;;5.90;1.50;;;;;;;16.16;82.14;99202.55;109260;1253;72899;-73
2023/07/20 06:08:55;;;;;;;6.30;1.70;;;;;;;16.15;81.89;99201.63;109483;1253;66382;-70
2023/07/20 06:11:45;;;;;;;5.70;1.70;;;;;;;16.18;81.96;99201.48;109375;1253;73002;-72
2023/07/20 06:14:40;;;;;;;6.80;1.60;;;;;;;16.21;81.96;99202.02;109398;1254;57409;-72
2023/07/20 06:17:28;;;;;;;5.60;1.60;;;;;;;16.21;81.72;99206.11;109067;1258;58956;-71
2023/07/20 06:20:15;;;;;;;5.40;1.80;;;;;;;16.23;81.79;99208.06;108991;1258;72076;-72
2023/07/20 06:23:02;;;;;;;5.50;1.40;;;;;;;16.26;81.86;99204.35;108986;1259;66623;-71
2023/07/20 06:25:54;;;;;;;5.80;1.40;;;;;;;16.24;80.94;99206.17;109055;1258;72504;-73
2023/07/20 06:28:41;;;;;;;6.10;1.40;;;;;;;16.23;80.78;99204.91;108945;1259;57407;-71
2023/07/20 06:31:28;;;;;;;4.80;1.00;;;;;;;16.21;80.84;99202.10;109097;1258;59186;-72
2023/07/20 06:34:20;;;;;;;5.60;1.70;;;;;;;16.10;79.43;99206.02;109001;1259;71953;-74
2023/07/20 06:37:10;;;;;;;4.80;1.40;;;;;;;15.95;79.83;99211.05;108798;1260;66832;-71
2023/07/20 06:39:57;;;;;;;5.20;1.20;;;;;;;15.81;79.63;99209.94;108538;1260;419358;-73
2023/07/20 06:42:48;;;;;;;5.10;1.20;;;;;;;15.80;80.52;99205.55;108782;1260;59620;-72
2023/07/20 06:45:38;;;;;;;5.50;1.50;;;;;;;15.81;80.59;99206.31;108702;1260;60142;-72
2023/07/20 06:48:24;;;;;;;6.10;1.40;;;;;;;15.81;80.57;99203.91;109065;1256;73926;-71
2023/07/20 06:51:14;;;;;;;5.50;1.30;;;;;;;15.84;80.48;99204.30;109223;1256;66806;-72
2023/07/20 06:54:04;;;;;;;4.80;1.40;;;;;;;15.89;79.81;99202.26;109060;1256;71436;-71
2023/07/20 06:56:51;;;;;;;4.60;1.10;;;;;;;15.83;79.19;99201.65;109122;1256;60283;-69
2023/07/20 06:59:59;;;;;;;5.90;1.10;;;;;;;15.69;78.44;99205.86;109235;1256;60409;-70
2023/07/20 07:02:46;;;;;;;4.70;1.10;;;;;;;15.60;79.37;99204.80;109026;1257;71652;-71
2023/07/20 07:05:38;;;;;;;5.40;1.30;;;;;;;15.52;79.79;99205.83;109065;1256;66871;-74
2023/07/20 07:08:25;;;;;;;4.00;1.00;;;;;;;15.49;80.53;99201.88;109075;1253;71371;-71
2023/07/20 07:11:13;;;;;;;4.30;1.10;;;;;;;15.54;80.54;99202.19;109336;1253;59404;-70
2023/07/20 07:13:59;;;;;;;6.00;1.30;;;;;;;15.77;79.69;99194.64;109510;1253;59081;-71
2023/07/20 07:16:48;;;;;;;5.80;1.30;;;;;;;16.16;78.78;99185.75;109576;1253;71789;-70
2023/07/20 07:19:36;;;;;;;5.60;1.40;;;;;;;16.40;78.10;99182.15;109528;1253;68729;-71
2023/07/20 07:22:25;;;;;;;5.10;1.00;;;;;;;16.61;77.02;99187.31;109365;1254;71553;-70
2023/07/20 07:25:12;;;;;;;4.90;1.20;;;;;;;16.99;76.20;99185.05;109221;1254;58909;-70
2023/07/20 07:27:59;;;;;;;5.80;1.30;;;;;;;17.60;74.19;99184.44;109312;1253;61104;-72
2023/07/20 07:30:46;;;;;;;5.10;1.20;;;;;;;18.65;71.37;99177.75;109308;1253;72883;-69
2023/07/20 07:33:34;;;;;;;5.60;1.30;;;;;;;20.20;66.48;99176.75;109259;1253;69006;-69
2023/07/20 07:36:20;;;;;;;4.00;0.90;;;;;;;21.81;60.37;99173.34;109461;1253;71398;-73
2023/07/20 07:39:08;;;;;;;5.70;1.20;;;;;;;23.44;54.41;99167.77;109399;1253;57917;-71
2023/07/20 07:41:57;;;;;;;3.90;0.90;;;;;;;24.74;50.77;99161.71;108842;1261;60159;-70
2023/07/20 07:44:45;;;;;;;5.10;1.10;;;;;;;26.61;44.94;99160.76;108784;1262;73077;-69
2023/07/20 07:47:31;;;;;;;4.30;0.80;;;;;;;27.94;40.31;99158.31;108790;1261;66379;-70
2023/07/20 07:50:18;;;;;;;4.20;0.90;;;;;;;28.34;38.96;99160.61;108752;1262;72812;-69
2023/07/20 07:53:04;;;;;;;3.10;0.60;;;;;;;29.25;36.75;99154.36;108827;1262;58629;-71
2023/07/20 07:55:51;;;;;;;3.30;0.60;;;;;;;28.68;35.43;99158.68;108692;1261;58810;-68
2023/07/20 07:58:38;;;;;;;3.60;0.70;;;;;;;27.59;37.42;99164.20;108787;1261;73091;-69
2023/07/20 08:01:24;;;;;;;5.40;1.10;;;;;;;27.52;38.52;99166.46;108794;1262;68073;-69
2023/07/20 08:04:11;;;;;;;5.20;1.20;;;;;;;28.79;37.15;99159.69;108844;1261;73476;-72
2023/07/20 08:06:59;;;;;;;3.40;0.70;;;;;;;29.91;34.22;99162.21;108820;1262;57507;-69
2023/07/20 08:09:45;;;;;;;5.70;1.10;;;;;;;30.43;32.75;99162.63;108782;1262;60358;-71
2023/07/20 08:12:33;;;;;;;2.70;0.60;;;;;;;30.42;31.27;99157.85;109071;1254;73609;-71
2023/07/20 08:15:19;;;;;;;7.50;2.90;;;;;;;28.94;32.28;99155.12;109256;1254;66476;-70
2023/07/20 08:18:07;;;;;;;4.90;1.20;;;;;;;28.03;34.31;99164.69;109405;1253;72655;-69
2023/07/20 08:20:55;;;;;;;4.00;0.80;;;;;;;27.18;35.90;99168.09;109271;1253;57267;-68
2023/07/20 08:23:42;;;;;;;4.80;0.90;;;;;;;26.55;37.07;99171.33;109332;1253;58853;-68
2023/07/20 08:26:28;;;;;;;3.70;0.80;;;;;;;26.33;38.10;99167.48;109420;1253;72715;-69
2023/07/20 08:29:15;;;;;;;4.30;0.70;;;;;;;26.66;37.50;99165.40;109259;1252;65829;-72
2023/07/20 08:32:03;;;;;;;2.80;0.50;;;;;;;26.81;36.97;99165.73;109453;1253;72605;-68
2023/07/20 08:34:50;;;;;;;3.60;0.60;;;;;;;27.49;37.12;99165.70;109155;1253;58769;-74
2023/07/20 08:37:37;;;;;;;5.00;1.00;;;;;;;28.40;35.46;99166.48;109245;1253;60256;-72
2023/07/20 08:40:24;;;;;;;6.10;0.90;;;;;;;29.23;34.12;99165.34;109224;1253;73226;-71
2023/07/20 08:43:11;;;;;;;4.40;0.90;;;;;;;30.42;32.64;99167.45;109472;1253;67654;-68
2023/07/20 08:45:58;;;;;;;3.00;0.60;;;;;;;31.28;30.97;99170.38;109533;1253;71168;-70
2023/07/20 08:48:46;;;;;;;3.90;0.70;;;;;;;31.01;30.31;99166.44;109653;1253;57351;-68
2023/07/20 08:51:35;;;;;;;5.10;0.70;;;;;;;29.93;31.62;99169.20;109456;1253;59011;-70
2023/07/20 08:54:21;;;;;;;3.40;0.60;;;;;;;29.94;32.76;99168.36;109331;1253;74707;-67
2023/07/20 08:57:14;;;;;;;3.80;0.80;;;;;;;30.90;32.12;99166.00;109417;1253;68285;-70
2023/07/20 09:00:09;;;;;;;4.30;0.70;;;;;;;30.90;31.72;99167.05;109510;1253;72703;-70
2023/07/20 09:02:57;;;;;;;5.30;0.70;;;;;;;30.69;31.80;99167.94;109328;1254;58822;-70
2023/07/20 09:05:45;;;;;;;4.40;0.80;;;;;;;30.48;31.77;99168.02;109525;1252;61186;-72
2023/07/20 09:08:32;;;;;;;3.90;0.70;;;;;;;30.53;31.39;99163.03;109232;1253;72908;-71
2023/07/20 09:11:19;;;;;;;4.20;0.80;;;;;;;30.24;30.92;99167.74;109452;1253;67961;-71
2023/07/20 09:14:07;;;;;;;4.60;0.80;;;;;;;29.14;32.47;99160.42;109533;1253;72969;-72
2023/07/20 09:16:55;;;;;;;5.10;0.80;;;;;;;28.45;33.44;99166.19;109403;1253;57805;-69
2023/07/20 09:19:48;;;;;;;4.00;0.80;;;;;;;28.65;33.42;99164.04;109313;1253;60301;-67
2023/07/20 09:22:35;;;;;;;3.90;0.80;;;;;;;28.85;33.40;99158.46;109253;1253;71900;-69
2023/07/20 09:25:22;;;;;;;2.80;0.70;;;;;;;29.29;32.54;99152.26;109305;1253;67823;-69
2023/07/20 09:28:10;;;;;;;3.60;0.70;;;;;;;30.05;31.73;99157.21;109251;1254;72748;-70
2023/07/20 09:31:28;;;;;;;3.30;0.70;;;;;;;30.80;31.13;99155.73;109201;1254;57449;-69
2023/07/20 09:34:25;;;;;;;3.00;0.60;;;;;;;31.07;29.85;99151.52;109413;1253;60312;-70
2023/07/20 09:37:23;;;;;;;2.90;0.60;;;;;;;30.39;30.19;99147.96;109331;1253;73720;-72
2023/07/20 09:40:14;;;;;;;4.00;0.70;;;;;;;29.56;31.62;99146.91;109572;1253;67922;-71
2023/07/20 09:43:04;;;;;;;3.30;0.60;;;;;;;29.05;32.10;99147.00;109283;1253;71943;-68
2023/07/20 09:45:58;;;;;;;3.50;0.70;;;;;;;28.48;33.16;99144.23;109444;1253;58893;-73
2023/07/20 09:48:54;;;;;;;3.80;0.80;;;;;;;28.25;33.76;99147.46;109409;1253;60114;-70
2023/07/20 09:51:46;;;;;;;4.10;0.60;;;;;;;29.19;32.70;99134.10;109267;1253;72924;-68
2023/07/20 09:54:32;;;;;;;4.20;0.80;;;;;;;29.56;32.00;99127.36;109242;1253;67900;-70
2023/07/20 09:57:21;;;;;;;3.90;0.80;;;;;;;29.95;31.67;99125.30;109396;1253;72494;-69
2023/07/20 10:00:12;;;;;;;2.70;0.60;;;;;;;30.66;30.31;99124.14;109249;1253;58160;-69
2023/07/20 10:03:04;;;;;;;3.90;0.60;;;;;;;30.90;29.09;99124.98;109392;1253;58756;-69
2023/07/20 10:06:01;;;;;;;3.60;0.70;;;;;;;31.51;28.66;99127.89;109309;1253;73222;-70
2023/07/20 10:08:55;;;;;;;2.70;0.60;;;;;;;32.34;27.58;99123.30;109352;1256;67910;-73
2023/07/20 10:11:50;;;;;;;2.70;0.50;;;;;;;33.11;26.64;99118.02;109309;1253;71419;-71
2023/07/20 10:15:30;;;;;;;3.90;0.80;;;;;;;32.99;25.81;99119.79;109243;1253;58000;-73
2023/07/20 10:18:30;;;;;;;3.00;0.50;;;;;;;32.38;26.66;99122.35;109326;1253;60447;-74
2023/07/20 10:21:19;;;;;;;3.20;0.70;;;;;;;31.85;27.66;99112.23;109312;1253;73800;-71
2023/07/20 10:24:09;;;;;;;2.80;0.60;;;;;;;31.46;28.68;99118.99;109283;1253;67759;-74
2023/07/20 10:26:58;;;;;;;2.50;0.60;;;;;;;30.96;28.13;99120.03;109310;1253;72683;-72
2023/07/20 10:29:46;;;;;;;2.90;0.50;;;;;;;30.42;28.46;99123.11;109157;1253;57300;-73
2023/07/20 10:32:33;;;;;;;4.20;0.80;;;;;;;30.70;28.71;99124.34;109241;1254;60406;-72
2023/07/20 10:35:20;;;;;;;4.10;0.60;;;;;;;31.03;27.73;99124.27;109297;1254;71560;-72
2023/07/20 10:38:06;;;;;;;2.70;0.60;;;;;;;30.52;27.25;99127.50;109310;1253;66391;-70
2023/07/20 10:40:56;;;;;;;2.60;0.50;;;;;;;29.45;28.73;99125.42;109479;1253;71884;-72
2023/07/20 10:43:44;;;;;;;3.00;0.60;;;;;;;28.53;30.98;99131.04;109028;1258;57310;-72
2023/07/20 10:46:45;;;;;;;2.90;0.70;;;;;;;27.58;31.97;99135.45;108976;1259;59074;-72
2023/07/20 10:49:34;;;;;;;4.60;0.80;;;;;;;26.60;33.10;99135.50;109077;1258;71419;-73
2023/07/20 10:52:21;;;;;;;4.60;1.00;;;;;;;25.66;34.45;99138.64;109057;1258;68846;-73
2023/07/20 10:55:17;;;;;;;3.90;0.80;;;;;;;24.92;36.20;99141.46;109003;1258;72737;-71
2023/07/20 10:58:14;;;;;;;5.00;0.80;;;;;;;24.14;38.11;99150.71;109023;1258;57681;-73
2023/07/20 11:01:06;;;;;;;4.00;1.00;;;;;;;23.24;41.59;99159.45;109033;1258;60179;-73
2023/07/20 11:04:00;;;;;;;4.10;0.90;;;;;;;22.37;44.81;99158.67;109071;1258;73119;-72
2023/07/20 11:06:55;;;;;;;5.00;0.90;;;;;;;21.77;48.03;99167.16;109022;1259;67913;-74
2023/07/20 11:09:44;;;;;;;5.30;1.20;;;;;;;21.10;51.81;99174.64;108959;1258;71810;-74
2023/07/20 11:12:35;;;;;;;4.60;1.00;;;;;;;20.49;55.51;99175.57;108969;1259;57577;-71
2023/07/20 11:15:22;;;;;;;4.60;1.20;;;;;;;20.04;58.47;99188.50;109124;1254;60085;-74
2023/07/20 11:18:12;;;;;;;4.90;1.20;;;;;;;19.62;60.91;99190.41;109291;1253;73160;-73
2023/07/20 11:20:59;;;;;;;5.80;1.50;;;;;;;19.22;63.18;99190.98;109532;1253;66768;-73
2023/07/20 11:23:48;;;;;;;4.90;1.20;;;;;;;18.85;64.92;99195.30;109106;1253;71411;-71
2023/07/20 11:26:45;;;;;;;4.80;1.20;;;;;;;18.46;66.78;99194.71;109506;1253;57333;-73
2023/07/20 11:29:32;;;;;;;5.10;1.20;;;;;;;18.17;67.87;99195.11;109558;1253;60372;-72
2023/07/20 11:32:23;;;;;;;4.70;1.30;;;;;;;18.09;68.15;99188.47;109416;1253;73104;-73
2023/07/20 11:35:14;;;;;;;4.60;1.20;;;;;;;18.14;68.16;99186.17;109302;1253;66935;-72
2023/07/20 11:38:02;;;;;;;5.10;1.10;;;;;;;18.40;67.78;99186.58;109049;1257;73612;-74
2023/07/20 11:40:51;;;;;;;4.40;1.20;;;;;;;18.67;67.07;99188.10;109102;1257;57374;-73
2023/07/20 11:43:42;;;;;;;5.00;1.10;;;;;;;18.88;65.93;99196.03;109060;1258;60095;-73
2023/07/20 11:46:30;;;;;;;6.10;1.10;;;;;;;19.01;65.55;99198.22;109046;1257;73120;-74
2023/07/20 11:49:17;;;;;;;4.30;1.10;;;;;;;19.11;65.07;99192.80;109096;1257;67597;-74
2023/07/20 11:52:13;;;;;;;5.30;1.10;;;;;;;19.19;63.63;99195.48;109087;1257;72804;-73
2023/07/20 11:55:01;;;;;;;4.70;1.10;;;;;;;19.55;61.93;99194.92;109061;1258;57751;-74
2023/07/20 11:58:05;;;;;;;5.30;1.00;;;;;;;19.98;60.24;99194.91;109041;1257;58855;-73
2023/07/20 12:00:55;;;;;;;4.60;1.00;;;;;;;20.43;57.89;99185.61;109073;1257;73061;-75
2023/07/20 12:03:43;;;;;;;3.80;0.90;;;;;;;20.69;56.11;99185.13;109065;1257;66628;-73
2023/07/20 12:06:32;;;;;;;3.80;1.00;;;;;;;20.82;52.89;99186.02;109164;1257;72941;-75
2023/07/20 12:09:18;;;;;;;4.00;0.90;;;;;;;20.92;53.23;99179.29;109251;1253;58250;-73
2023/07/20 12:12:12;;;;;;;5.50;0.90;;;;;;;21.04;52.85;99177.23;109381;1253;60094;-72
2023/07/20 12:15:16;;;;;;;3.20;0.80;;;;;;;21.12;50.94;99177.10;109338;1252;71565;-71
2023/07/20 12:18:04;;;;;;;3.70;0.90;;;;;;;21.34;50.33;99177.48;109546;1253;66827;-75
2023/07/20 12:20:59;;;;;;;3.60;0.90;;;;;;;21.35;47.62;99178.81;109300;1253;73173;-73
2023/07/20 12:23:46;;;;;;;4.00;0.90;;;;;;;21.39;47.93;99176.18;109297;1253;57380;-73
2023/07/20 12:26:33;;;;;;;4.10;0.90;;;;;;;21.49;47.48;99177.26;109312;1253;60213;-71
2023/07/20 12:29:20;;;;;;;4.30;0.90;;;;;;;21.67;47.26;99171.81;109311;1253;72907;-71
2023/07/20 12:32:06;;;;;;;3.70;0.80;;;;;;;21.78;46.69;99165.03;109435;1253;69829;-72
2023/07/20 12:34:53;;;;;;;4.70;1.10;;;;;;;21.80;46.76;99164.69;109327;1256;72354;-73
2023/07/20 12:37:40;;;;;;;3.20;0.80;;;;;;;21.98;46.56;99159.89;109355;1253;57885;-72
2023/07/20 12:40:27;;;;;;;5.10;0.80;;;;;;;21.94;46.30;99150.33;109304;1253;58908;-72
2023/07/20 12:43:14;;;;;;;5.30;1.00;;;;;;;21.79;46.47;99149.69;109363;1253;73122;-71
2023/07/20 12:46:00;;;;;;;4.00;0.90;;;;;;;21.60;46.59;99150.72;109315;1253;68670;-71
2023/07/20 12:48:47;;;;;;;3.30;0.80;;;;;;;21.47;46.20;99149.27;109522;1253;72732;-70
2023/07/20 12:51:35;;;;;;;3.70;0.80;;;;;;;21.46;45.81;99146.65;109348;1253;59001;-71
2023/07/20 12:54:22;;;;;;;5.20;1.00;;;;;;;21.46;45.86;99143.65;109393;1253;59029;-73
2023/07/20 12:57:09;;;;;;;4.90;0.90;;;;;;;21.50;45.99;99139.10;109420;1253;72798;-70
2023/07/20 12:59:58;;;;;;;4.00;0.80;;;;;;;21.52;46.38;99146.95;109389;1253;65971;-71
2023/07/20 13:02:45;;;;;;;3.60;0.70;;;;;;;21.45;45.71;99142.95;109497;1253;71393;-72
2023/07/20 13:05:33;;;;;;;3.50;0.90;;;;;;;21.33;45.41;99145.23;109423;1253;58021;-70
2023/07/20 13:08:25;;;;;;;3.80;0.90;;;;;;;21.28;46.38;99151.36;109370;1253;58882;-72
2023/07/20 13:11:12;;;;;;;4.20;0.90;;;;;;;21.23;46.75;99143.09;109429;1253;71789;-72
2023/07/20 13:13:58;;;;;;;4.40;1.00;;;;;;;21.18;47.02;99141.81;109410;1254;67012;-72
2023/07/20 13:16:46;;;;;;;4.10;0.80;;;;;;;20.98;47.06;99143.84;109356;1254;72754;-70
2023/07/20 13:19:33;;;;;;;3.80;0.90;;;;;;;20.76;47.04;99146.38;109188;1254;57813;-72
2023/07/20 13:22:20;;;;;;;4.70;1.00;;;;;;;20.77;47.03;99153.52;109345;1253;58418;-72
2023/07/20 13:25:08;;;;;;;3.60;0.80;;;;;;;20.77;47.28;99172.30;109384;1253;71727;-72
2023/07/20 13:27:54;;;;;;;4.70;0.80;;;;;;;20.31;48.75;99191.52;109500;1254;66259;-73
2023/07/20 13:30:41;;;;;;;4.10;0.80;;;;;;;19.68;55.03;99210.83;109188;1254;70885;-73
2023/07/20 13:33:29;;;;;;;4.10;0.90;;;;;;;18.92;59.37;99209.30;109292;1254;57925;-74
2023/07/20 13:36:15;;;;;;;5.20;0.80;;;;;;;18.24;61.26;99206.90;109570;1253;61157;-73
2023/07/20 13:39:04;;;;;;;4.00;1.00;;;;;;;17.78;62.52;99204.49;109355;1253;72879;-71
2023/07/20 13:41:51;;;;;;;7.70;1.20;;;;;;;17.64;63.78;99203.33;109301;1256;68740;-72
2023/07/20 13:44:38;;;;;;;3.50;0.80;;;;;;;17.72;64.94;99203.09;109315;1254;72819;-73
2023/07/20 13:47:24;;;;;;;3.40;0.70;;;;;;;18.04;67.57;99202.45;109175;1256;57354;-74
2023/07/20 13:50:17;;;;;;;8.90;4.10;;;;;;;18.38;67.24;99202.00;109353;1253;60189;-71
2023/07/20 13:53:06;;;;;;;6.60;1.30;;;;;;;18.58;66.06;99199.77;109300;1253;71426;-71
2023/07/20 13:55:56;;;;;;;4.50;1.10;;;;;;;18.70;66.03;99196.60;109417;1254;67805;-73
2023/07/20 13:58:46;;;;;;;6.70;1.10;;;;;;;18.78;65.96;99202.55;109297;1255;73160;-73
2023/07/20 14:01:35;;;;;;;4.90;1.20;;;;;;;18.81;66.77;99202.71;109251;1254;57496;-75
2023/07/20 14:04:24;;;;;;;7.00;1.30;;;;;;;18.81;66.87;99193.09;109266;1253;60214;-75
2023/07/20 14:07:13;;;;;;;7.30;1.10;;;;;;;18.81;66.62;99195.61;109239;1253;74550;-74
2023/07/20 14:10:04;;;;;;;5.00;1.10;;;;;;;18.80;67.58;99196.14;109315;1253;66412;-74